This is the latest recevied weather packets stored in our database for station/object OK4PZ-5. If no packets are shown the sender has not sent any weather packets the latest 10 day(s).
| Time | Temp. | Humidity | Pressure | Rain* | Wind** | Luminosity | Snow |
|---|---|---|---|---|---|---|---|
| 1777079702 | 2.22° C | 94% | 1018 hPa | 0 mm | - | - | - |
| 1777078802 | 2.22° C | 92% | 1018 hPa | 0 mm | - | - | - |
| 1777077902 | 2.78° C | 93% | 1019 hPa | 0 mm | - | - | - |
| 1777077002 | 3.33° C | 90% | 1018 hPa | 0 mm | - | - | - |
| 1777076102 | 3.89° C | 89% | 1019 hPa | 0 mm | - | - | - |
| 1777075202 | 3.89° C | 89% | 1019 hPa | 0 mm | - | - | - |
| 1777074302 | 3.89° C | 88% | 1019 hPa | 0 mm | - | - | - |
| 1777073402 | 4.44° C | 87% | 1019 hPa | 0 mm | - | - | - |
| 1777072502 | 5° C | 85% | 1019 hPa | 0 mm | - | - | - |
| 1777071603 | 5° C | 83% | 1019 hPa | 0 mm | - | - | - |
| 1777070703 | 5° C | 84% | 1019 hPa | 0 mm | - | - | - |
| 1777069802 | 5° C | 86% | 1019 hPa | 0 mm | - | - | - |
| 1777068903 | 6.11° C | 80% | 1019 hPa | 0 mm | - | - | - |
| 1777068002 | 6.11° C | 83% | 1019 hPa | 0 mm | - | - | - |
| 1777067102 | 6.11° C | 84% | 1019 hPa | 0 mm | - | - | - |
| 1777066203 | 6.67° C | 83% | 1019 hPa | 0 mm | - | - | - |
| 1777065303 | 6.67° C | 81% | 1019 hPa | 0 mm | - | - | - |
| 1777064402 | 7.22° C | 80% | 1019 hPa | 0 mm | - | - | - |
| 1777063502 | 7.78° C | 79% | 1018 hPa | 0 mm | - | - | - |
| 1777062602 | 8.33° C | 76% | 1018 hPa | 0 mm | - | - | - |
| 1777061703 | 9.44° C | 68% | 1018 hPa | 0 mm | - | - | - |
| 1777060802 | 10° C | 69% | 1018 hPa | 0 mm | - | - | - |
| 1777059902 | 9.44° C | 72% | 1018 hPa | 0 mm | - | - | - |
| 1777059003 | 10.56° C | 68% | 1018 hPa | 0 mm | - | - | - |
| 1777058103 | 11.11° C | 65% | 1018 hPa | 0 mm | - | - | - |
* Rain latest hour (hover to see other rain measurements)
** Current wind speed in m/s (hover to see current wind gust speed)